Tuesday, January 16, 2018, 6:54 AM EST
Back to Local

KESN, Easton / Newman Field

Location: Easton, MD, United States Lat: 38.8
Local Time: 6:54 AM EST (11:54 GMT) Lon: -76.067
Time Zone: US/Eastern Elev: 72 ft

Show me the last for .
Show Decoded

2018-01-16 05:45 METAR KESN 161045Z 00000KT 10SM BKN024 M01/M04 A3051 =
2018-01-16 05:06 METAR KESN 161006Z AUTO 00000KT 10SM OVC011 M01/M04 A3050 RMK AO2 T10071041 =
2018-01-16 04:48 METAR KESN 160948Z AUTO 00000KT 10SM OVC011 M01/M04 A3049 RMK AO2 T10081043 =
2018-01-16 04:27 METAR KESN 160928Z AUTO 00000KT 10SM OVC011 M01/M04 A3050 RMK AO2 T10081042 =
2018-01-16 04:06 METAR KESN 160908Z AUTO 02003KT 10SM OVC011 M01/M04 A3049 RMK AO2 T10081042 =
2018-01-16 03:48 METAR KESN 160848Z AUTO 00000KT 10SM OVC011 M01/M04 A3050 RMK AO2 T10081043 =
2018-01-16 03:27 METAR KESN 160828Z AUTO 00000KT 10SM OVC011 M01/M04 A3051 RMK AO2 T10091044 =
2018-01-16 03:06 METAR KESN 160808Z AUTO 00000KT 10SM OVC011 M01/M04 A3051 RMK AO2 T10091043 =
2018-01-16 02:48 METAR KESN 160748Z AUTO 34003KT 10SM OVC011 M01/M04 A3050 RMK AO2 T10101045 =
2018-01-16 02:27 METAR KESN 160728Z AUTO 36003KT 10SM OVC011 M01/M04 A3049 RMK AO2 T10101045 =
2018-01-16 02:06 METAR KESN 160708Z AUTO 34004KT 10SM OVC011 M01/M05 A3050 RMK AO2 T10111047 =
2018-01-16 01:48 METAR KESN 160648Z AUTO 34005KT 10SM OVC011 M01/M04 A3050 RMK AO2 T10121045 =
2018-01-16 01:27 METAR KESN 160628Z AUTO 32004KT 10SM OVC011 M01/M05 A3049 RMK AO2 T10121048 =
2018-01-16 01:07 METAR KESN 160608Z AUTO 00000KT 10SM OVC011 M01/M05 A3049 RMK AO2 T10121047 =
2018-01-16 00:48 METAR KESN 160548Z AUTO 00000KT 10SM OVC011 M01/M05 A3050 RMK AO2 T10131047 =
2018-01-16 00:27 METAR KESN 160528Z AUTO 34003KT 10SM OVC011 M01/M05 A3051 RMK AO2 T10131046 =
2018-01-16 00:06 METAR KESN 160508Z AUTO 00000KT 10SM OVC011 M01/M05 A3051 RMK AO2 T10151047 =
2018-01-15 23:48 METAR KESN 160448Z AUTO 00000KT 10SM OVC011 M01/M05 A3052 RMK AO2 T10151047 =
2018-01-15 23:26 METAR KESN 160428Z AUTO 00000KT 10SM OVC011 M01/M05 A3051 RMK AO2 T10151050 =
2018-01-15 23:06 METAR KESN 160408Z AUTO 00000KT 10SM OVC013 M02/M05 A3052 RMK AO2 T10161051 =
2018-01-15 22:48 METAR KESN 160348Z AUTO 00000KT 10SM BKN013 M02/M05 A3051 RMK AO2 T10181051 =
2018-01-15 22:26 METAR KESN 160328Z AUTO 00000KT 10SM BKN011 M02/M05 A3052 RMK AO2 T10171052 =
2018-01-15 21:50 METAR KESN 160250Z 00000KT 10SM OVC011 M02/M06 A3052 =
2018-01-15 20:50 METAR KESN 160150Z 00000KT 10SM OVC013 M02/M05 A3052 =
2018-01-15 19:53 METAR KESN 160053Z 30003KT 7SM BKN015 M04/M07 A3054 =
2018-01-15 18:53 METAR KESN 152353Z 00000KT 10SM BKN038 M02/M06 A3054 =
2018-01-15 17:50 METAR KESN 152250Z 00000KT 10SM BKN044 M02/M06 A3053 =
2018-01-15 16:50 METAR KESN 152150Z 04003KT 10SM FEW020 SCT036 BKN046 M01/M06 A3053 =
2018-01-15 15:50 METAR KESN 152050Z 01005KT 7SM SCT009 BKN025 OVC031 M01/M06 A3052 =
2018-01-15 14:50 METAR KESN 151950Z 04005KT 3SM -SN BR SCT009 BKN015 OVC031 M01/M06 A3051 =
2018-01-15 14:15 METAR KESN 151915Z 01005KT 3SM -SN SCT006 OVC017 M01/M06 A3052 =
2018-01-15 14:06 METAR KESN 151906Z 01005KT 3SM -SN BKN006 BKN017 M01/M06 A3052 =
2018-01-15 13:50 METAR KESN 151850Z 01005KT 10SM BKN017 M01/M06 A3053 =
2018-01-15 12:54 METAR KESN 151754Z 02004KT 10SM BKN017 M01/M06 A3054 =
2018-01-15 11:59 METAR KESN 151659Z 02006KT 10SM BKN019 M01/M07 A3056 =
2018-01-15 10:52 METAR KESN 151552Z 04009KT 10SM SCT023 BKN034 BKN045 M02/M08 A3060 =
2018-01-15 09:45 METAR KESN 151445Z 04008KT 10SM BKN028 BKN033 BKN039 M03/M08 A3062 =
2018-01-15 08:45 METAR KESN 151345Z 04006KT 10SM BKN020 BKN027 M05/M10 A3061 =
2018-01-15 07:50 METAR KESN 151250Z 05008KT 10SM OVC014 M06/M11 A3060 =

Support USWX by starting your Amazon purchase here.